Time;durP1;ratioP1;P1;durP2;ratioP2;P2;SDS_P1;SDS_P2;PMS_P1;PMS_P2;Temp;Humidity;BMP_temperature;BMP_pressure;BME280_temperature;BME280_humidity;BME280_pressure;Samples;Min_cycle;Max_cycle;Signal;HPM_P1;HPM_P2
2022/09/30 00:01:15;;;;;;;;;;;;;;;;;;5103005;28;1271;-75
2022/09/30 00:03:42;;;;;;;;;;;;;;;;;;5103144;28;842;-75
2022/09/30 00:06:07;;;;;;;;;;;;;;;;;;5101084;28;834;-75
2022/09/30 00:08:32;;;;;;;;;;;;;;;;;;5103275;28;815;-76
2022/09/30 00:11:03;;;;;;;;;;;;;;;;;;5102936;28;1258;-76
2022/09/30 00:13:28;;;;;;;;;;;;;;;;;;5102918;28;770;-76
2022/09/30 00:15:53;;;;;;;;;;;;;;;;;;5102358;28;1886;-76
2022/09/30 00:18:18;;;;;;;;;;;;;;;;;;5102655;28;889;-75
2022/09/30 00:20:44;;;;;;;;;;;;;;;;;;5102879;28;1266;-76
2022/09/30 00:23:09;;;;;;;;;;;;;;;;;;5102859;28;861;-75
2022/09/30 00:25:34;;;;;;;;;;;;;;;;;;5102772;28;1229;-75
2022/09/30 00:27:59;;;;;;;;;;;;;;;;;;5102652;28;993;-75
2022/09/30 00:30:24;;;;;;;;;;;;;;;;;;5107809;22;2189;-77
2022/09/30 00:32:49;;;;;;;;;;;;;;;;;;5062763;28;783;-77
2022/09/30 00:35:15;;;;;;;;;;;;;;;;;;5062343;28;961;-77
2022/09/30 00:37:40;;;;;;;;;;;;;;;;;;5062609;28;1905;-78
2022/09/30 00:40:06;;;;;;;;;;;;;;;;;;5060009;28;1187;-77
2022/09/30 00:42:31;;;;;;;;;;;;;;;;;;5042571;28;865;-77
2022/09/30 00:45:07;;;;;;;;;;;;;;;;;;5042197;28;986;-77
2022/09/30 00:47:35;;;;;;;;;;;;;;;;;;5042522;28;815;-77
2022/09/30 00:50:10;;;;;;;;;;;;;;;;;;5042547;28;1198;-77
2022/09/30 00:52:35;;;;;;;;;;;;;;;;;;5042509;28;855;-77
2022/09/30 00:55:03;;;;;;;;;;;;;;;;;;5042047;28;803;-77
2022/09/30 00:57:28;;;;;;;;;;;;;;;;;;5042498;28;1894;-77
2022/09/30 00:59:54;;;;;;;;;;;;;;;;;;5042668;28;1243;-77
2022/09/30 01:02:19;;;;;;;;;;;;;;;;;;5042439;28;783;-77
2022/09/30 01:04:44;;;;;;;;;;;;;;;;;;5042182;28;799;-78
2022/09/30 01:07:10;;;;;;;;;;;;;;;;;;5041247;28;970;-78
2022/09/30 01:09:37;;;;;;;;;;;;;;;;;;5042266;28;993;-78
2022/09/30 01:12:03;;;;;;;;;;;;;;;;;;5042229;28;1251;-78
2022/09/30 01:14:29;;;;;;;;;;;;;;;;;;5057204;28;1390;-78
2022/09/30 01:17:00;;;;;;;;;;;;;;;;;;5041947;28;1968;-77
2022/09/30 01:19:25;;;;;;;;;;;;;;;;;;5041952;28;1025;-77
2022/09/30 01:21:56;;;;;;;;;;;;;;;;;;5041786;28;1227;-77
2022/09/30 01:24:37;;;;;;;;;;;;;;;;;;5041538;28;921;-78
2022/09/30 01:27:08;;;;;;;;;;;;;;;;;;5041819;28;835;-77
2022/09/30 01:29:51;;;;;;;;;;;;;;;;;;5041849;28;990;-77
2022/09/30 01:32:16;;;;;;;;;;;;;;;;;;5041798;28;982;-77
2022/09/30 01:34:58;;;;;;;;;;;;;;;;;;5041429;28;839;-78
2022/09/30 01:37:24;;;;;;;;;;;;;;;;;;5041706;28;1906;-78
2022/09/30 01:40:09;;;;;;;;;;;;;;;;;;5041674;28;1184;-77
2022/09/30 01:42:44;;;;;;;;;;;;;;;;;;5041189;28;1225;-78
2022/09/30 01:45:14;;;;;;;;;;;;;;;;;;5041269;28;812;-78
2022/09/30 01:48:00;;;;;;;;;;;;;;;;;;5041572;28;985;-77
2022/09/30 01:50:35;;;;;;;;;;;;;;;;;;5042022;28;1263;-78
2022/09/30 01:53:09;;;;;;;;;;;;;;;;;;5041870;28;732;-77
2022/09/30 01:55:34;;;;;;;;;;;;;;;;;;5041243;28;1949;-77
2022/09/30 01:57:59;;;;;;;;;;;;;;;;;;5041828;28;807;-78
2022/09/30 02:00:25;;;;;;;;;;;;;;;;;;5041342;28;1144;-77
2022/09/30 02:02:53;;;;;;;;;;;;;;;;;;5041701;28;826;-77
2022/09/30 02:05:20;;;;;;;;;;;;;;;;;;5041085;28;819;-77
2022/09/30 02:07:52;;;;;;;;;;;;;;;;;;5041273;28;795;-77
2022/09/30 02:10:26;;;;;;;;;;;;;;;;;;5041242;28;1238;-77
2022/09/30 02:13:08;;;;;;;;;;;;;;;;;;5041203;28;1001;-77
2022/09/30 02:15:35;;;;;;;;;;;;;;;;;;5040908;28;1894;-77
2022/09/30 02:18:03;;;;;;;;;;;;;;;;;;5023650;28;862;-77
2022/09/30 02:20:30;;;;;;;;;;;;;;;;;;5041057;28;1219;-77
2022/09/30 02:23:00;;;;;;;;;;;;;;;;;;5041519;28;783;-78
2022/09/30 02:25:28;;;;;;;;;;;;;;;;;;5040826;28;811;-78
2022/09/30 02:27:56;;;;;;;;;;;;;;;;;;5041042;28;879;-78
2022/09/30 02:30:21;;;;;;;;;;;;;;;;;;5040834;28;1263;-78
2022/09/30 02:32:46;;;;;;;;;;;;;;;;;;5041122;28;1065;-77
2022/09/30 02:35:33;;;;;;;;;;;;;;;;;;5040589;28;1213;-77
2022/09/30 02:38:02;;;;;;;;;;;;;;;;;;5040948;28;811;-78
2022/09/30 02:40:35;;;;;;;;;;;;;;;;;;5040881;28;1176;-77
2022/09/30 02:43:02;;;;;;;;;;;;;;;;;;5041267;28;870;-77
2022/09/30 02:45:30;;;;;;;;;;;;;;;;;;5040522;28;882;-78
2022/09/30 02:48:04;;;;;;;;;;;;;;;;;;5040796;28;1042;-78
2022/09/30 02:50:36;;;;;;;;;;;;;;;;;;5040925;28;1259;-77
2022/09/30 02:53:20;;;;;;;;;;;;;;;;;;5041078;28;862;-77
2022/09/30 02:55:48;;;;;;;;;;;;;;;;;;5040256;28;1956;-78
2022/09/30 02:58:15;;;;;;;;;;;;;;;;;;5040809;28;855;-78
2022/09/30 03:00:40;;;;;;;;;;;;;;;;;;5040705;28;1180;-78
2022/09/30 03:03:11;;;;;;;;;;;;;;;;;;5040765;28;874;-78
2022/09/30 03:05:36;;;;;;;;;;;;;;;;;;5040438;28;814;-78
2022/09/30 03:08:02;;;;;;;;;;;;;;;;;;5040644;28;803;-77
2022/09/30 03:10:28;;;;;;;;;;;;;;;;;;5040464;28;1175;-77
2022/09/30 03:13:12;;;;;;;;;;;;;;;;;;5040589;28;965;-77
2022/09/30 03:16:03;;;;;;;;;;;;;;;;;;5040124;28;1897;-77
2022/09/30 03:18:36;;;;;;;;;;;;;;;;;;5016906;28;1217;-77
2022/09/30 03:21:01;;;;;;;;;;;;;;;;;;5040097;28;1308;-78
2022/09/30 03:23:35;;;;;;;;;;;;;;;;;;5040674;28;849;-77
2022/09/30 03:26:11;;;;;;;;;;;;;;;;;;5039978;28;811;-78
2022/09/30 03:28:45;;;;;;;;;;;;;;;;;;5040433;28;792;-77
2022/09/30 03:31:13;;;;;;;;;;;;;;;;;;5041699;28;1303;-77
2022/09/30 03:33:41;;;;;;;;;;;;;;;;;;5044086;28;850;-77
2022/09/30 03:36:17;;;;;;;;;;;;;;;;;;5043157;28;1967;-77
2022/09/30 03:38:42;;;;;;;;;;;;;;;;;;5043558;28;858;-78
2022/09/30 03:41:26;;;;;;;;;;;;;;;;;;5043495;28;1184;-77
2022/09/30 03:43:56;;;;;;;;;;;;;;;;;;5043525;28;859;-77
2022/09/30 03:46:25;;;;;;;;;;;;;;;;;;5043258;28;847;-77
2022/09/30 03:48:52;;;;;;;;;;;;;;;;;;5043506;28;803;-77
2022/09/30 03:51:17;;;;;;;;;;;;;;;;;;5043276;28;1156;-77
2022/09/30 03:53:45;;;;;;;;;;;;;;;;;;5043657;28;798;-78
2022/09/30 03:56:11;;;;;;;;;;;;;;;;;;5042819;28;1957;-78
2022/09/30 03:58:37;;;;;;;;;;;;;;;;;;5043456;28;941;-78
2022/09/30 04:01:02;;;;;;;;;;;;;;;;;;5043164;28;1243;-78
2022/09/30 04:03:27;;;;;;;;;;;;;;;;;;5043690;28;732;-77
2022/09/30 04:05:53;;;;;;;;;;;;;;;;;;5042996;28;851;-76
2022/09/30 04:08:18;;;;;;;;;;;;;;;;;;5043111;28;791;-77
2022/09/30 04:10:43;;;;;;;;;;;;;;;;;;5043537;28;1214;-78
2022/09/30 04:13:09;;;;;;;;;;;;;;;;;;5043270;28;843;-77
2022/09/30 04:15:35;;;;;;;;;;;;;;;;;;5025301;28;915;-77
2022/09/30 04:18:00;;;;;;;;;;;;;;;;;;5042775;28;1961;-77
2022/09/30 04:20:25;;;;;;;;;;;;;;;;;;5043022;28;1191;-77
2022/09/30 04:22:51;;;;;;;;;;;;;;;;;;5043113;28;1037;-77
2022/09/30 04:25:16;;;;;;;;;;;;;;;;;;5042712;28;902;-77
2022/09/30 04:27:41;;;;;;;;;;;;;;;;;;5042758;28;953;-77
2022/09/30 04:30:06;;;;;;;;;;;;;;;;;;5042922;28;1175;-77
2022/09/30 04:32:31;;;;;;;;;;;;;;;;;;5042822;28;989;-77
2022/09/30 04:34:57;;;;;;;;;;;;;;;;;;5042929;28;875;-77
2022/09/30 04:37:23;;;;;;;;;;;;;;;;;;5042662;28;1890;-77
2022/09/30 04:39:48;;;;;;;;;;;;;;;;;;5042606;28;1258;-77
2022/09/30 04:42:13;;;;;;;;;;;;;;;;;;5023636;28;1317;-77
2022/09/30 04:44:38;;;;;;;;;;;;;;;;;;5042481;28;882;-77
2022/09/30 04:47:05;;;;;;;;;;;;;;;;;;5042499;28;828;-77
2022/09/30 04:49:30;;;;;;;;;;;;;;;;;;5042646;28;894;-77
2022/09/30 04:51:55;;;;;;;;;;;;;;;;;;5042330;28;1165;-77
2022/09/30 04:54:21;;;;;;;;;;;;;;;;;;5042402;28;843;-77
2022/09/30 04:56:46;;;;;;;;;;;;;;;;;;5042146;28;1893;-77
2022/09/30 04:59:11;;;;;;;;;;;;;;;;;;5042403;28;799;-77
2022/09/30 05:01:38;;;;;;;;;;;;;;;;;;5042456;28;1163;-75
2022/09/30 05:04:03;;;;;;;;;;;;;;;;;;5042283;28;819;-76
2022/09/30 05:06:28;;;;;;;;;;;;;;;;;;5042136;28;852;-77
2022/09/30 05:08:53;;;;;;;;;;;;;;;;;;5042059;28;993;-77
2022/09/30 05:11:19;;;;;;;;;;;;;;;;;;5042199;28;1262;-78
2022/09/30 05:13:45;;;;;;;;;;;;;;;;;;5042301;28;1053;-78
2022/09/30 05:16:11;;;;;;;;;;;;;;;;;;5041748;28;1890;-77
2022/09/30 05:18:38;;;;;;;;;;;;;;;;;;5042062;28;791;-77
2022/09/30 05:21:03;;;;;;;;;;;;;;;;;;5042045;28;1289;-77
2022/09/30 05:23:29;;;;;;;;;;;;;;;;;;5042143;28;949;-77
2022/09/30 05:25:55;;;;;;;;;;;;;;;;;;5041702;28;989;-78
2022/09/30 05:28:20;;;;;;;;;;;;;;;;;;5041727;28;1117;-77
2022/09/30 05:30:45;;;;;;;;;;;;;;;;;;5041787;28;1156;-77
2022/09/30 05:33:12;;;;;;;;;;;;;;;;;;5041820;28;969;-77
2022/09/30 05:35:38;;;;;;;;;;;;;;;;;;5041563;28;954;-77
2022/09/30 05:38:03;;;;;;;;;;;;;;;;;;5041577;28;1953;-77
2022/09/30 05:40:29;;;;;;;;;;;;;;;;;;5041670;28;1255;-77
2022/09/30 05:42:58;;;;;;;;;;;;;;;;;;5041785;28;953;-77
2022/09/30 05:45:23;;;;;;;;;;;;;;;;;;5041426;28;1048;-77
2022/09/30 05:47:52;;;;;;;;;;;;;;;;;;5041749;28;811;-77
2022/09/30 05:50:18;;;;;;;;;;;;;;;;;;5041659;28;1234;-77
2022/09/30 05:52:43;;;;;;;;;;;;;;;;;;5041618;28;866;-77
2022/09/30 05:55:08;;;;;;;;;;;;;;;;;;5040896;28;863;-77
2022/09/30 05:57:34;;;;;;;;;;;;;;;;;;5041564;28;1898;-77
2022/09/30 06:00:00;;;;;;;;;;;;;;;;;;5041191;28;1250;-77
2022/09/30 06:02:25;;;;;;;;;;;;;;;;;;5041696;28;890;-77
2022/09/30 06:04:50;;;;;;;;;;;;;;;;;;5041152;28;981;-77
2022/09/30 06:07:16;;;;;;;;;;;;;;;;;;5041437;28;780;-77
2022/09/30 06:09:41;;;;;;;;;;;;;;;;;;5041256;28;886;-77
2022/09/30 06:12:07;;;;;;;;;;;;;;;;;;5041551;28;1192;-77
2022/09/30 06:14:32;;;;;;;;;;;;;;;;;;5041247;28;850;-77
2022/09/30 06:16:59;;;;;;;;;;;;;;;;;;5041380;28;1901;-77
2022/09/30 06:19:25;;;;;;;;;;;;;;;;;;5041054;28;838;-77
2022/09/30 06:21:50;;;;;;;;;;;;;;;;;;5041166;28;1164;-77
2022/09/30 06:24:15;;;;;;;;;;;;;;;;;;5041302;28;783;-77
2022/09/30 06:26:42;;;;;;;;;;;;;;;;;;5041212;28;816;-77
2022/09/30 06:29:07;;;;;;;;;;;;;;;;;;5040875;28;1054;-77
2022/09/30 06:31:32;;;;;;;;;;;;;;;;;;5082962;22;3521;-67
2022/09/30 06:33:57;;;;;;;;;;;;;;;;;;5101104;28;993;-68
2022/09/30 06:36:22;;;;;;;;;;;;;;;;;;5100539;28;1897;-68
2022/09/30 06:38:51;;;;;;;;;;;;;;;;;;5101208;28;1259;-68
2022/09/30 06:41:17;;;;;;;;;;;;;;;;;;5101419;28;1160;-68
2022/09/30 06:43:42;;;;;;;;;;;;;;;;;;5101408;28;1060;-68
2022/09/30 06:46:07;;;;;;;;;;;;;;;;;;5101034;28;822;-68
2022/09/30 06:48:33;;;;;;;;;;;;;;;;;;5101054;28;833;-68
2022/09/30 06:50:59;;;;;;;;;;;;;;;;;;5101014;28;1155;-68
2022/09/30 06:53:24;;;;;;;;;;;;;;;;;;5101215;28;986;-68
2022/09/30 06:55:53;;;;;;;;;;;;;;;;;;5100717;28;1959;-68
2022/09/30 06:58:20;;;;;;;;;;;;;;;;;;5101146;28;996;-68
2022/09/30 07:00:45;;;;;;;;;;;;;;;;;;5100955;28;1152;-68
2022/09/30 07:03:20;;;;;;;;;;;;;;;;;;5101115;28;1048;-68
2022/09/30 07:05:52;;;;;;;;;;;;;;;;;;5101392;28;837;-68
2022/09/30 07:08:17;;;;;;;;;;;;;;;;;;5104551;28;1008;-68
2022/09/30 07:10:45;;;;;;;;;;;;;;;;;;5104359;28;1168;-68
2022/09/30 07:13:11;;;;;;;;;;;;;;;;;;5104556;28;842;-68
2022/09/30 07:15:36;;;;;;;;;;;;;;;;;;5104012;28;811;-68
2022/09/30 07:18:01;;;;;;;;;;;;;;;;;;5104378;28;1897;-68
2022/09/30 07:20:26;;;;;;;;;;;;;;;;;;5104181;28;1151;-68
2022/09/30 07:22:51;;;;;;;;;;;;;;;;;;5104250;28;988;-68
2022/09/30 07:25:17;;;;;;;;;;;;;;;;;;5104031;28;771;-68
2022/09/30 07:27:43;;;;;;;;;;;;;;;;;;5104293;28;786;-68
2022/09/30 07:30:09;;;;;;;;;;;;;;;;;;5104064;28;814;-68
2022/09/30 07:32:35;;;;;;;;;;;;;;;;;;5104291;28;1215;-68
2022/09/30 07:35:00;;;;;;;;;;;;;;;;;;5103742;28;850;-69
2022/09/30 07:37:25;;;;;;;;;;;;;;;;;;5103962;28;1972;-68
2022/09/30 07:39:50;;;;;;;;;;;;;;;;;;5104029;28;906;-68
2022/09/30 07:42:19;;;;;;;;;;;;;;;;;;5103796;28;1243;-68
2022/09/30 07:44:44;;;;;;;;;;;;;;;;;;5103792;28;799;-69
2022/09/30 07:47:10;;;;;;;;;;;;;;;;;;5103901;28;845;-68
2022/09/30 07:49:35;;;;;;;;;;;;;;;;;;5104114;28;869;-68
2022/09/30 07:52:01;;;;;;;;;;;;;;;;;;5103772;28;1249;-68
2022/09/30 07:54:30;;;;;;;;;;;;;;;;;;5103558;28;842;-68
2022/09/30 07:56:56;;;;;;;;;;;;;;;;;;5103651;28;1964;-68
2022/09/30 07:59:22;;;;;;;;;;;;;;;;;;5085793;28;837;-69
2022/09/30 08:01:47;;;;;;;;;;;;;;;;;;5103610;28;1242;-68
2022/09/30 08:04:14;;;;;;;;;;;;;;;;;;5103915;28;869;-68
2022/09/30 08:06:41;;;;;;;;;;;;;;;;;;5103370;28;814;-68
2022/09/30 08:09:06;;;;;;;;;;;;;;;;;;5103672;28;861;-69
2022/09/30 08:11:32;;;;;;;;;;;;;;;;;;5103390;28;1127;-69
2022/09/30 08:13:57;;;;;;;;;;;;;;;;;;5103564;28;787;-69
2022/09/30 08:16:23;;;;;;;;;;;;;;;;;;5102890;28;1902;-69
2022/09/30 08:18:52;;;;;;;;;;;;;;;;;;5103240;28;865;-69
2022/09/30 08:21:17;;;;;;;;;;;;;;;;;;5103224;28;1131;-69
2022/09/30 08:23:43;;;;;;;;;;;;;;;;;;5103534;28;862;-69
2022/09/30 08:26:09;;;;;;;;;;;;;;;;;;5102835;28;910;-69
2022/09/30 08:28:35;;;;;;;;;;;;;;;;;;5103561;28;830;-69
2022/09/30 08:31:05;;;;;;;;;;;;;;;;;;5102832;28;1175;-69
2022/09/30 08:33:31;;;;;;;;;;;;;;;;;;5103097;28;799;-69
2022/09/30 08:36:00;;;;;;;;;;;;;;;;;;5102878;28;1905;-69
2022/09/30 08:38:25;;;;;;;;;;;;;;;;;;5103031;28;850;-69
2022/09/30 08:40:59;;;;;;;;;;;;;;;;;;5103105;28;1171;-69
2022/09/30 08:43:37;;;;;;;;;;;;;;;;;;5102874;28;910;-70
2022/09/30 08:46:21;;;;;;;;;;;;;;;;;;5103062;28;877;-69
2022/09/30 08:48:52;;;;;;;;;;;;;;;;;;5102856;28;960;-69
2022/09/30 08:51:33;;;;;;;;;;;;;;;;;;5102702;28;1180;-69
2022/09/30 08:54:01;;;;;;;;;;;;;;;;;;5102900;28;984;-69
2022/09/30 08:56:28;;;;;;;;;;;;;;;;;;5102528;28;1952;-69
2022/09/30 08:58:55;;;;;;;;;;;;;;;;;;5102638;28;996;-69
2022/09/30 09:01:31;;;;;;;;;;;;;;;;;;5102801;28;1195;-69
2022/09/30 09:03:58;;;;;;;;;;;;;;;;;;5102664;28;790;-70
2022/09/30 09:06:26;;;;;;;;;;;;;;;;;;5102552;28;862;-69
2022/09/30 09:08:55;;;;;;;;;;;;;;;;;;5102922;28;913;-69
2022/09/30 09:11:22;;;;;;;;;;;;;;;;;;5102507;28;1273;-69
2022/09/30 09:13:56;;;;;;;;;;;;;;;;;;5102659;28;873;-70
2022/09/30 09:16:29;;;;;;;;;;;;;;;;;;5102276;28;1898;-69
2022/09/30 09:18:54;;;;;;;;;;;;;;;;;;5102635;28;997;-69
2022/09/30 09:21:37;;;;;;;;;;;;;;;;;;5102663;28;1188;-69
2022/09/30 09:24:03;;;;;;;;;;;;;;;;;;5102604;28;1063;-69
2022/09/30 09:26:34;;;;;;;;;;;;;;;;;;5102214;28;830;-69
2022/09/30 09:29:05;;;;;;;;;;;;;;;;;;5101619;28;1155;-69
2022/09/30 09:31:30;;;;;;;;;;;;;;;;;;5101948;28;1219;-69
2022/09/30 09:33:59;;;;;;;;;;;;;;;;;;5102287;28;1083;-69
2022/09/30 09:36:40;;;;;;;;;;;;;;;;;;5101902;28;1901;-69
2022/09/30 09:39:08;;;;;;;;;;;;;;;;;;5102163;28;956;-69
2022/09/30 09:41:52;;;;;;;;;;;;;;;;;;5102133;28;1277;-69
2022/09/30 09:44:20;;;;;;;;;;;;;;;;;;5102000;28;803;-69
2022/09/30 09:46:50;;;;;;;;;;;;;;;;;;5101674;28;977;-69
2022/09/30 09:49:19;;;;;;;;;;;;;;;;;;5102064;28;783;-69
2022/09/30 09:51:47;;;;;;;;;;;;;;;;;;5101765;28;1191;-68
2022/09/30 09:54:14;;;;;;;;;;;;;;;;;;5101944;28;886;-68
2022/09/30 09:56:39;;;;;;;;;;;;;;;;;;5101512;28;1964;-68
2022/09/30 09:59:07;;;;;;;;;;;;;;;;;;5102055;28;842;-68
2022/09/30 10:01:34;;;;;;;;;;;;;;;;;;5101692;28;1167;-68
2022/09/30 10:04:08;;;;;;;;;;;;;;;;;;5101997;28;864;-68
2022/09/30 10:06:44;;;;;;;;;;;;;;;;;;5101581;28;873;-68
2022/09/30 10:09:28;;;;;;;;;;;;;;;;;;5101662;28;790;-68
2022/09/30 10:12:05;;;;;;;;;;;;;;;;;;5101567;28;1183;-68
2022/09/30 10:14:31;;;;;;;;;;;;;;;;;;5101413;28;981;-68
2022/09/30 10:16:57;;;;;;;;;;;;;;;;;;5101740;28;1902;-68
2022/09/30 10:19:26;;;;;;;;;;;;;;;;;;5101418;28;989;-68
2022/09/30 10:22:07;;;;;;;;;;;;;;;;;;5101640;28;1214;-68
2022/09/30 10:24:32;;;;;;;;;;;;;;;;;;5101106;28;960;-68
2022/09/30 10:26:57;;;;;;;;;;;;;;;;;;5101541;28;893;-68
2022/09/30 10:29:26;;;;;;;;;;;;;;;;;;5101402;28;1016;-68
2022/09/30 10:31:51;;;;;;;;;;;;;;;;;;5101304;28;1199;-68
2022/09/30 10:34:19;;;;;;;;;;;;;;;;;;5101398;28;818;-68
2022/09/30 10:36:45;;;;;;;;;;;;;;;;;;5101310;28;1981;-69
2022/09/30 10:39:26;;;;;;;;;;;;;;;;;;5101543;28;948;-68
2022/09/30 10:42:00;;;;;;;;;;;;;;;;;;5103862;28;1179;-68
2022/09/30 10:44:26;;;;;;;;;;;;;;;;;;5104779;28;1000;-68
2022/09/30 10:46:54;;;;;;;;;;;;;;;;;;5104945;28;826;-68
2022/09/30 10:49:22;;;;;;;;;;;;;;;;;;5104991;28;818;-68
2022/09/30 10:51:48;;;;;;;;;;;;;;;;;;5104710;28;1278;-68
2022/09/30 10:54:33;;;;;;;;;;;;;;;;;;5104559;28;1043;-68
2022/09/30 10:57:02;;;;;;;;;;;;;;;;;;5103754;28;1955;-68
2022/09/30 10:59:30;;;;;;;;;;;;;;;;;;5104583;28;903;-68
2022/09/30 11:02:14;;;;;;;;;;;;;;;;;;5104535;28;1206;-68
2022/09/30 11:04:42;;;;;;;;;;;;;;;;;;5104239;28;1000;-68
2022/09/30 11:07:22;;;;;;;;;;;;;;;;;;5104607;28;930;-69
2022/09/30 11:09:54;;;;;;;;;;;;;;;;;;5104309;28;842;-68
2022/09/30 11:12:24;;;;;;;;;;;;;;;;;;5104274;28;1329;-68
2022/09/30 11:15:13;;;;;;;;;;;;;;;;;;5104151;28;720;-68
2022/09/30 11:17:38;;;;;;;;;;;;;;;;;;5093212;28;1898;-68
2022/09/30 11:20:06;;;;;;;;;;;;;;;;;;5104152;28;876;-68
2022/09/30 11:22:41;;;;;;;;;;;;;;;;;;5104249;28;1148;-68
2022/09/30 11:25:13;;;;;;;;;;;;;;;;;;5103789;28;925;-68
2022/09/30 11:27:53;;;;;;;;;;;;;;;;;;5104285;28;853;-69
2022/09/30 11:30:19;;;;;;;;;;;;;;;;;;5104171;28;1297;-69
2022/09/30 11:33:05;;;;;;;;;;;;;;;;;;5104471;28;858;-68
2022/09/30 11:35:33;;;;;;;;;;;;;;;;;;5102897;28;1139;-68
2022/09/30 11:38:07;;;;;;;;;;;;;;;;;;5103967;28;1964;-69
2022/09/30 11:40:46;;;;;;;;;;;;;;;;;;5103805;28;1183;-69
2022/09/30 11:43:15;;;;;;;;;;;;;;;;;;5103933;28;877;-69
2022/09/30 11:45:47;;;;;;;;;;;;;;;;;;5103650;28;869;-69
2022/09/30 11:48:23;;;;;;;;;;;;;;;;;;5103965;28;996;-69
2022/09/30 11:51:12;;;;;;;;;;;;;;;;;;5103413;28;1279;-69
2022/09/30 11:53:43;;;;;;;;;;;;;;;;;;5092844;28;1179;-68
2022/09/30 11:56:21;;;;;;;;;;;;;;;;;;5103449;28;1963;-68
2022/09/30 11:58:48;;;;;;;;;;;;;;;;;;5103618;28;811;-68
2022/09/30 12:01:24;;;;;;;;;;;;;;;;;;5103359;28;1202;-69
2022/09/30 12:03:58;;;;;;;;;;;;;;;;;;5103741;28;802;-68
2022/09/30 12:06:27;;;;;;;;;;;;;;;;;;5103842;28;771;-68
2022/09/30 12:08:58;;;;;;;;;;;;;;;;;;5103757;28;1009;-68
2022/09/30 12:11:36;;;;;;;;;;;;;;;;;;5103336;28;1275;-68
2022/09/30 12:14:09;;;;;;;;;;;;;;;;;;5103267;28;842;-68
2022/09/30 12:16:36;;;;;;;;;;;;;;;;;;5103379;28;1898;-68
2022/09/30 12:19:09;;;;;;;;;;;;;;;;;;5103552;28;1056;-68
2022/09/30 12:21:49;;;;;;;;;;;;;;;;;;5103261;28;1195;-68
2022/09/30 12:24:19;;;;;;;;;;;;;;;;;;5103375;28;861;-68
2022/09/30 12:26:46;;;;;;;;;;;;;;;;;;5103090;28;826;-68
2022/09/30 12:32:10;;;;;;;;;;;;;;;;;;5098762;22;3718;-64
2022/09/30 12:35:00;;;;;;;;;;;;;;;;;;5062301;28;811;-64
2022/09/30 12:37:37;;;;;;;;;;;;;;;;;;5062639;28;1918;-64
2022/09/30 12:40:19;;;;;;;;;;;;;;;;;;5062861;28;957;-64
2022/09/30 12:43:03;;;;;;;;;;;;;;;;;;5045471;28;1147;-64
2022/09/30 12:45:40;;;;;;;;;;;;;;;;;;5042415;28;953;-63
2022/09/30 12:48:07;;;;;;;;;;;;;;;;;;5042992;28;790;-63
2022/09/30 12:50:38;;;;;;;;;;;;;;;;;;5042526;28;831;-64
2022/09/30 12:53:15;;;;;;;;;;;;;;;;;;5024645;28;1216;-63
2022/09/30 12:55:41;;;;;;;;;;;;;;;;;;5042469;28;902;-66
2022/09/30 12:58:13;;;;;;;;;;;;;;;;;;5042206;28;1902;-66
2022/09/30 13:00:38;;;;;;;;;;;;;;;;;;5042866;28;756;-66
2022/09/30 13:03:05;;;;;;;;;;;;;;;;;;5022041;28;1259;-66
2022/09/30 13:05:30;;;;;;;;;;;;;;;;;;5042129;28;1006;-66
2022/09/30 13:08:04;;;;;;;;;;;;;;;;;;5042281;28;951;-67
2022/09/30 13:10:30;;;;;;;;;;;;;;;;;;5042204;28;1001;-66
2022/09/30 13:13:08;;;;;;;;;;;;;;;;;;5042226;28;1182;-67
2022/09/30 13:15:35;;;;;;;;;;;;;;;;;;5042075;28;815;-67
2022/09/30 13:18:19;;;;;;;;;;;;;;;;;;5042277;28;1955;-66
2022/09/30 13:21:15;;;;;;;;;;;;;;;;;;5041987;28;1148;-64
2022/09/30 13:23:40;;;;;;;;;;;;;;;;;;5041542;28;1434;-64
2022/09/30 13:26:27;;;;;;;;;;;;;;;;;;5041715;28;878;-65
2022/09/30 13:28:58;;;;;;;;;;;;;;;;;;5041913;28;921;-65
2022/09/30 13:31:24;;;;;;;;;;;;;;;;;;5041716;28;1282;-65
2022/09/30 13:34:10;;;;;;;;;;;;;;;;;;5041668;28;1005;-65
2022/09/30 13:36:38;;;;;;;;;;;;;;;;;;5040778;28;1898;-65
2022/09/30 13:39:15;;;;;;;;;;;;;;;;;;5041843;28;854;-65
2022/09/30 13:41:42;;;;;;;;;;;;;;;;;;5041474;28;1263;-65
2022/09/30 13:44:12;;;;;;;;;;;;;;;;;;5041410;28;997;-65
2022/09/30 13:46:45;;;;;;;;;;;;;;;;;;5042007;28;862;-65
2022/09/30 13:49:17;;;;;;;;;;;;;;;;;;5041575;28;862;-65
2022/09/30 13:51:43;;;;;;;;;;;;;;;;;;5041600;28;1175;-65
2022/09/30 13:54:16;;;;;;;;;;;;;;;;;;5041273;28;855;-65
2022/09/30 13:56:41;;;;;;;;;;;;;;;;;;5041094;28;1894;-65
2022/09/30 13:59:25;;;;;;;;;;;;;;;;;;5041486;28;913;-65
2022/09/30 14:02:18;;;;;;;;;;;;;;;;;;5041314;28;1141;-65
2022/09/30 14:04:47;;;;;;;;;;;;;;;;;;5041102;28;997;-65
2022/09/30 14:07:28;;;;;;;;;;;;;;;;;;5041692;28;1024;-65
2022/09/30 14:09:59;;;;;;;;;;;;;;;;;;5041425;28;867;-65
2022/09/30 14:12:33;;;;;;;;;;;;;;;;;;5041017;28;1120;-65
2022/09/30 14:15:01;;;;;;;;;;;;;;;;;;5040379;28;945;-65
2022/09/30 14:17:35;;;;;;;;;;;;;;;;;;5041334;28;1945;-68
2022/09/30 14:20:04;;;;;;;;;;;;;;;;;;5041157;28;827;-67
2022/09/30 14:22:29;;;;;;;;;;;;;;;;;;5041353;28;1128;-67
2022/09/30 14:24:55;;;;;;;;;;;;;;;;;;5040716;28;812;-67
2022/09/30 14:27:26;;;;;;;;;;;;;;;;;;5041066;28;765;-66
2022/09/30 14:30:04;;;;;;;;;;;;;;;;;;5040840;28;799;-64
2022/09/30 14:32:30;;;;;;;;;;;;;;;;;;5040833;28;1132;-64
2022/09/30 14:34:56;;;;;;;;;;;;;;;;;;5040662;28;878;-65
2022/09/30 14:37:31;;;;;;;;;;;;;;;;;;5040785;28;1951;-64
2022/09/30 14:39:57;;;;;;;;;;;;;;;;;;5040891;28;839;-65
2022/09/30 14:42:34;;;;;;;;;;;;;;;;;;5040845;28;1168;-65
2022/09/30 14:45:03;;;;;;;;;;;;;;;;;;5040490;28;858;-65
2022/09/30 14:47:30;;;;;;;;;;;;;;;;;;5040887;28;842;-65
2022/09/30 14:49:56;;;;;;;;;;;;;;;;;;5040789;28;808;-65
2022/09/30 14:52:58;;;;;;;;;;;;;;;;;;5040673;28;1160;-65
2022/09/30 14:55:25;;;;;;;;;;;;;;;;;;4959563;28;1533;-65
2022/09/30 14:57:55;;;;;;;;;;;;;;;;;;5025872;28;1894;-66
2022/09/30 15:00:27;;;;;;;;;;;;;;;;;;5040624;28;843;-65
2022/09/30 15:02:53;;;;;;;;;;;;;;;;;;5040583;28;1249;-65
2022/09/30 15:05:18;;;;;;;;;;;;;;;;;;5040199;28;1068;-65
2022/09/30 15:07:43;;;;;;;;;;;;;;;;;;5040639;28;956;-65
2022/09/30 15:10:20;;;;;;;;;;;;;;;;;;5040467;28;977;-65
2022/09/30 15:12:47;;;;;;;;;;;;;;;;;;5040953;28;1310;-65
2022/09/30 15:15:30;;;;;;;;;;;;;;;;;;5040196;28;787;-65
2022/09/30 15:17:56;;;;;;;;;;;;;;;;;;5040538;28;1957;-65
2022/09/30 15:20:24;;;;;;;;;;;;;;;;;;5040586;28;877;-65
2022/09/30 15:22:51;;;;;;;;;;;;;;;;;;5040095;28;1180;-65
2022/09/30 15:25:17;;;;;;;;;;;;;;;;;;5040034;28;855;-65
2022/09/30 15:27:44;;;;;;;;;;;;;;;;;;5024926;28;962;-65
2022/09/30 15:30:15;;;;;;;;;;;;;;;;;;5043797;28;870;-65
2022/09/30 15:32:41;;;;;;;;;;;;;;;;;;5043652;28;1156;-65
2022/09/30 15:35:11;;;;;;;;;;;;;;;;;;5043726;28;855;-65
2022/09/30 15:37:36;;;;;;;;;;;;;;;;;;5043435;28;1961;-65
2022/09/30 15:42:58;;;;;;;;;;;;;;;;;;5043685;28;1207;-65
2022/09/30 15:45:30;;;;;;;;;;;;;;;;;;5043370;28;803;-65
2022/09/30 15:48:01;;;;;;;;;;;;;;;;;;5043510;28;870;-65
2022/09/30 15:50:36;;;;;;;;;;;;;;;;;;5043692;28;838;-65
2022/09/30 15:53:12;;;;;;;;;;;;;;;;;;5043228;28;1151;-65
2022/09/30 15:55:42;;;;;;;;;;;;;;;;;;5043001;28;795;-65
2022/09/30 15:58:36;;;;;;;;;;;;;;;;;;5043566;28;1898;-65
2022/09/30 16:01:09;;;;;;;;;;;;;;;;;;5047644;28;1183;-65
2022/09/30 16:03:35;;;;;;;;;;;;;;;;;;5054585;28;883;-64
2022/09/30 16:06:21;;;;;;;;;;;;;;;;;;5045578;28;1024;-66
2022/09/30 16:08:48;;;;;;;;;;;;;;;;;;5043319;28;851;-66
2022/09/30 16:11:19;;;;;;;;;;;;;;;;;;5043223;28;1196;-66
2022/09/30 16:13:44;;;;;;;;;;;;;;;;;;5042831;28;874;-66
2022/09/30 16:16:20;;;;;;;;;;;;;;;;;;5042861;28;1901;-66
2022/09/30 16:18:46;;;;;;;;;;;;;;;;;;5043083;28;819;-64
2022/09/30 16:21:26;;;;;;;;;;;;;;;;;;5054453;28;1241;-66
2022/09/30 16:23:51;;;;;;;;;;;;;;;;;;5042726;28;949;-66
2022/09/30 16:26:23;;;;;;;;;;;;;;;;;;5042626;28;1076;-65
2022/09/30 16:28:48;;;;;;;;;;;;;;;;;;5042816;28;823;-67
2022/09/30 16:31:15;;;;;;;;;;;;;;;;;;5042769;28;1258;-66
2022/09/30 16:33:41;;;;;;;;;;;;;;;;;;5024938;28;1263;-66
2022/09/30 16:36:07;;;;;;;;;;;;;;;;;;5042785;28;847;-66
2022/09/30 16:38:32;;;;;;;;;;;;;;;;;;5024900;28;1973;-66
2022/09/30 16:40:59;;;;;;;;;;;;;;;;;;5025037;28;1266;-66
2022/09/30 16:43:25;;;;;;;;;;;;;;;;;;5042561;28;826;-65
2022/09/30 16:45:51;;;;;;;;;;;;;;;;;;5042427;28;854;-66
2022/09/30 16:48:16;;;;;;;;;;;;;;;;;;5042510;28;906;-65
2022/09/30 16:50:44;;;;;;;;;;;;;;;;;;5057925;28;1319;-66
2022/09/30 16:53:09;;;;;;;;;;;;;;;;;;5042326;28;899;-64
2022/09/30 16:55:35;;;;;;;;;;;;;;;;;;5042189;28;799;-64
2022/09/30 16:58:00;;;;;;;;;;;;;;;;;;5042553;28;1898;-64
2022/09/30 17:00:26;;;;;;;;;;;;;;;;;;5042455;28;913;-66
2022/09/30 17:02:51;;;;;;;;;;;;;;;;;;5042213;28;1251;-67
2022/09/30 17:05:21;;;;;;;;;;;;;;;;;;5042094;28;906;-64
2022/09/30 17:07:47;;;;;;;;;;;;;;;;;;5042081;28;842;-64
2022/09/30 17:10:17;;;;;;;;;;;;;;;;;;5042445;28;1005;-64
2022/09/30 17:12:43;;;;;;;;;;;;;;;;;;5041920;28;1172;-64
2022/09/30 17:15:09;;;;;;;;;;;;;;;;;;5041990;28;881;-64
2022/09/30 17:17:34;;;;;;;;;;;;;;;;;;5042452;28;1985;-64
2022/09/30 17:19:59;;;;;;;;;;;;;;;;;;5042133;28;826;-64
2022/09/30 17:22:24;;;;;;;;;;;;;;;;;;5041953;28;1167;-64
2022/09/30 17:24:51;;;;;;;;;;;;;;;;;;5041496;28;949;-64
2022/09/30 17:27:16;;;;;;;;;;;;;;;;;;5042159;28;881;-64
2022/09/30 17:29:41;;;;;;;;;;;;;;;;;;5041962;28;993;-64
2022/09/30 17:32:06;;;;;;;;;;;;;;;;;;5042168;28;1255;-64
2022/09/30 17:34:31;;;;;;;;;;;;;;;;;;5041433;28;800;-63